M/V Alton St. Amant — WDE7604 — position and weather

sailwx.info

Track history (hours):
 
Tides and Currents Weather Stations Pressure Air Temp Water Temp Dewpoint Dewpoint Depression Visibility Wind Speed Wind Dir Waves Ship Positions

M/V Alton St. Amant

Owner: The Barge Investment Group Five, L.L.C., Harahan, LA. More information available from US FCC via Universal Licensing System and Coast Guard Vessel Documentation Center.

Last reported at 2017-Sep-19 13:30 UTC. Time now 2017-Sep-19 13:50 UTC.
Position N 29°32' W 094°54'.

Length 25 m; draft 2.7 m.

Type: Towing. MMSI: 367395270.

Date/timePositionNaut miles runAvg speedWind from/ knotsBaromVisibWave heightAir tempDewpointWater temp
2017-Sep-19 13:30N 29°32' W 094°54'4 7.2
2017-Sep-19 13:00N 29°35' W 094°56'4 7.2
2017-Sep-19 12:30N 29°38' W 094°58'4 7.3
2017-Sep-19 12:00N 29°41' W 094°59'4 6.2
2017-Sep-19 11:23N 29°44' W 095°03'3 6.9
2017-Sep-19 11:00N 29°46' W 095°05'2 1.6
2017-Sep-19 10:02N 29°47' W 095°05'0 0.0
2017-Sep-18 13:46N 29°47' W 095°05'2 1.3
2017-Sep-18 12:33N 29°46' W 095°05'0 6.7
2017-Sep-18 12:29N 29°46' W 095°04'2 3.8
2017-Sep-18 11:56N 29°44' W 095°03'0 0.1
2017-Sep-18 11:30N 29°44' W 095°03'0 0.0
2017-Sep-18 11:00N 29°44' W 095°03'0 0.0
2017-Sep-18 10:30N 29°44' W 095°03'0 0.0
2017-Sep-18 10:00N 29°44' W 095°03'0 0.0
2017-Sep-18 09:30N 29°44' W 095°03'0 0.0
2017-Sep-18 09:00N 29°44' W 095°03'0 0.0
2017-Sep-18 08:30N 29°44' W 095°03'0 0.0
2017-Sep-18 08:00N 29°44' W 095°03'0 0.0
2017-Sep-18 07:30N 29°44' W 095°03'0 0.0
2017-Sep-18 07:00N 29°44' W 095°03'0 0.0
2017-Sep-18 06:30N 29°44' W 095°03'0 0.0
2017-Sep-18 06:00N 29°44' W 095°03'0 0.0
2017-Sep-18 05:30N 29°44' W 095°03'0 0.0
2017-Sep-18 05:00N 29°44' W 095°03'0 0.0
2017-Sep-18 04:30N 29°44' W 095°03'0 0.0
2017-Sep-18 04:00N 29°44' W 095°03'0 0.0
2017-Sep-18 03:30N 29°44' W 095°03'0 0.0
2017-Sep-18 03:00N 29°44' W 095°03'0 0.0
2017-Sep-18 02:30N 29°44' W 095°03'0 0.0
2017-Sep-18 02:00N 29°44' W 095°03'0 0.0
2017-Sep-18 01:30N 29°44' W 095°03'0 0.0
2017-Sep-18 01:00N 29°44' W 095°03'0 0.0
2017-Sep-18 00:30N 29°44' W 095°03'0 0.0
2017-Sep-18 00:00N 29°44' W 095°03'0 0.0
2017-Sep-17 23:30N 29°44' W 095°03'0 0.0
2017-Sep-17 23:00N 29°44' W 095°03'0 0.0
2017-Sep-17 22:30N 29°44' W 095°03'0 0.0
2017-Sep-17 22:00N 29°44' W 095°03'0 0.0
2017-Sep-17 21:30N 29°44' W 095°03'0 0.0
2017-Sep-17 21:00N 29°44' W 095°03'0 0.0
2017-Sep-17 20:30N 29°44' W 095°03'0 0.0
2017-Sep-17 20:00N 29°44' W 095°03'0 0.0
2017-Sep-17 19:30N 29°44' W 095°03'0 0.0
2017-Sep-17 19:00N 29°44' W 095°03'0 0.0
2017-Sep-17 18:30N 29°44' W 095°03'0 0.0
2017-Sep-17 18:00N 29°44' W 095°03'0 0.0
2017-Sep-17 17:30N 29°44' W 095°03'0 0.0
2017-Sep-17 17:00N 29°44' W 095°03'0 0.0
2017-Sep-17 16:30N 29°44' W 095°03'0 0.0
2017-Sep-17 16:00N 29°44' W 095°03'0 0.0
2017-Sep-17 15:30N 29°44' W 095°03'0 0.0
2017-Sep-17 15:00N 29°44' W 095°03'0 0.0
2017-Sep-17 14:30N 29°44' W 095°03'0 0.0
2017-Sep-17 14:00N 29°44' W 095°03'0 0.0
2017-Sep-17 13:30N 29°44' W 095°03'0 0.0
2017-Sep-17 13:00N 29°44' W 095°03'0 0.0
2017-Sep-17 12:30N 29°44' W 095°03'0 0.0
2017-Sep-17 12:00N 29°44' W 095°03'0 0.0
2017-Sep-17 11:30N 29°44' W 095°03'0 0.0
2017-Sep-17 11:00N 29°44' W 095°03'0 0.1
2017-Sep-17 10:30N 29°44' W 095°03'1 2.1
2017-Sep-17 09:59N 29°45' W 095°04'2 3.1
2017-Sep-17 09:29N 29°46' W 095°05'2 3.6
2017-Sep-17 08:57N 29°44' W 095°07'1 2.5
2017-Sep-17 08:24N 29°44' W 095°08'0 0.1
2017-Sep-17 07:59N 29°44' W 095°08'0 0.0
2017-Sep-17 07:24N 29°44' W 095°08'0 0.0
2017-Sep-17 07:00N 29°44' W 095°08'0 0.0
2017-Sep-17 06:28N 29°44' W 095°08'0 0.0
2017-Sep-17 05:56N 29°44' W 095°08'0 0.0
2017-Sep-17 05:30N 29°44' W 095°08'0 0.0
2017-Sep-17 05:00N 29°44' W 095°08'0 0.0
2017-Sep-17 04:30N 29°44' W 095°08'0 0.0
2017-Sep-17 03:58N 29°44' W 095°08'0 0.0
2017-Sep-17 03:30N 29°44' W 095°08'0 0.0
2017-Sep-17 03:00N 29°44' W 095°08'0 0.0
2017-Sep-17 02:20N 29°44' W 095°08'0 0.0
2017-Sep-17 01:44N 29°44' W 095°08'0 0.0
2017-Sep-17 01:30N 29°44' W 095°08'0 0.0
2017-Sep-17 01:00N 29°44' W 095°08'0 0.0
2017-Sep-17 00:30N 29°44' W 095°08'0 0.0
2017-Sep-16 10:53N 29°44' W 095°08'0 0.0
2017-Sep-16 09:28N 29°44' W 095°08'0 0.0
2017-Sep-16 08:57N 29°44' W 095°08'0 0.0
2017-Sep-16 08:28N 29°44' W 095°08'0 0.0
2017-Sep-16 06:21N 29°44' W 095°08'0 0.0
2017-Sep-16 06:00N 29°44' W 095°08'0 0.0
2017-Sep-16 05:30N 29°44' W 095°08'0 0.0
2017-Sep-16 04:56N 29°44' W 095°08'0 0.0
2017-Sep-14 17:19N 29°44' W 095°08'1 1.5
2017-Sep-14 16:57N 29°44' W 095°08'3 5.7
2017-Sep-14 16:30N 29°46' W 095°05'3 5.3
2017-Sep-14 16:00N 29°44' W 095°03'3 5.4
2017-Sep-14 15:30N 29°42' W 095°01'3 6.0
2017-Sep-14 15:01N 29°40' W 094°58'3 6.9
2017-Sep-14 14:31N 29°37' W 094°57'4 7.1
2017-Sep-14 14:01N 29°34' W 094°55'4 7.1
2017-Sep-14 13:30N 29°31' W 094°53'  
2017-Sep-10 18:03N 29°32' W 094°54'0 6.9
2017-Sep-10 18:00N 29°32' W 094°54'3 6.5
2017-Sep-10 17:30N 29°35' W 094°56'3 6.4
2017-Sep-10 17:00N 29°38' W 094°58'3 6.7
2017-Sep-10 16:30N 29°41' W 094°59'3 6.3
2017-Sep-10 16:00N 29°44' W 095°01'1 2.9
2017-Sep-10 15:31N 29°44' W 095°03'0 0.1
2017-Sep-10 15:00N 29°44' W 095°03'0 0.0
2017-Sep-10 14:00N 29°44' W 095°03'0 0.0
2017-Sep-10 13:30N 29°44' W 095°03'0 0.0
2017-Sep-10 13:00N 29°44' W 095°03'0 0.0
2017-Sep-10 12:30N 29°44' W 095°03'0 0.0
2017-Sep-10 12:00N 29°44' W 095°03'0 0.0
2017-Sep-10 11:30N 29°44' W 095°03'0 0.0
2017-Sep-10 11:00N 29°44' W 095°03'0 0.0
2017-Sep-10 10:30N 29°44' W 095°03'0 0.0
2017-Sep-10 10:00N 29°44' W 095°03'0 0.0
2017-Sep-10 09:30N 29°44' W 095°03'0 0.0
2017-Sep-10 09:00N 29°44' W 095°03'0 0.0
2017-Sep-10 08:30N 29°44' W 095°03'0 0.0
2017-Sep-10 08:00N 29°44' W 095°03'0 0.0
2017-Sep-10 07:30N 29°44' W 095°03'0 0.0
2017-Sep-10 07:00N 29°44' W 095°03'0 0.0
2017-Sep-10 06:30N 29°44' W 095°03'0 0.0
2017-Sep-10 06:00N 29°44' W 095°03'0 0.0
2017-Sep-10 05:30N 29°44' W 095°03'0 0.0
2017-Sep-10 05:00N 29°44' W 095°03'0 0.0
2017-Sep-10 04:30N 29°44' W 095°03'0 0.0
2017-Sep-10 04:00N 29°44' W 095°03'0 0.0
2017-Sep-10 03:30N 29°44' W 095°03'0 0.0
2017-Sep-10 03:00N 29°44' W 095°03'0 0.0
2017-Sep-10 02:30N 29°44' W 095°03'0 0.0
2017-Sep-10 02:00N 29°44' W 095°03'0 0.0
2017-Sep-10 01:30N 29°44' W 095°03'0 0.0
2017-Sep-10 01:00N 29°44' W 095°03'0 0.0
2017-Sep-10 00:30N 29°44' W 095°03'0 0.0
2017-Sep-10 00:00N 29°44' W 095°03'0 0.0
2017-Sep-09 23:30N 29°44' W 095°03'0 0.0
2017-Sep-09 23:00N 29°44' W 095°03'0 0.0
2017-Sep-09 22:30N 29°44' W 095°03'0 0.0
2017-Sep-09 22:00N 29°44' W 095°03'0 0.0
2017-Sep-09 21:30N 29°44' W 095°03'0 0.0
2017-Sep-09 21:00N 29°44' W 095°03'0 0.0
2017-Sep-09 20:30N 29°44' W 095°03'0 0.0
2017-Sep-09 20:00N 29°44' W 095°03'0 0.0
2017-Sep-09 19:30N 29°44' W 095°03'0 0.0
2017-Sep-09 19:00N 29°44' W 095°03'0 0.0
2017-Sep-09 18:30N 29°44' W 095°03'0 0.0
2017-Sep-09 18:00N 29°44' W 095°03'0 0.0
2017-Sep-09 17:30N 29°44' W 095°03'0 0.0
2017-Sep-09 17:00N 29°44' W 095°03'0 0.0
2017-Sep-09 16:30N 29°44' W 095°03'0 0.0
2017-Sep-09 16:00N 29°44' W 095°03'0 0.0
2017-Sep-09 15:30N 29°44' W 095°03'0 0.0
2017-Sep-09 15:00N 29°44' W 095°03'0 0.0
2017-Sep-09 14:29N 29°44' W 095°03'0 0.0
2017-Sep-09 14:00N 29°44' W 095°03'  
Track history (hours):
 
Tides and Currents Weather Stations Pressure Air Temp Water Temp Dewpoint Dewpoint Depression Visibility Wind Speed Wind Dir Waves Ship Positions

M/V Alton St. Amant

Owner: The Barge Investment Group Five, L.L.C., Harahan, LA. More information available from US FCC via Universal Licensing System and Coast Guard Vessel Documentation Center.

Last reported at 2017-Sep-19 13:30 UTC. Time now 2017-Sep-19 13:50 UTC.
Position N 29°32' W 094°54'.

Length 25 m; draft 2.7 m.

Type: Towing. MMSI: 367395270.

Date/timePositionNaut miles runAvg speedWind from/ knotsBaromVisibWave heightAir tempDewpointWater temp
2017-Sep-19 13:30N 29°32' W 094°54'4 7.2
2017-Sep-19 13:00N 29°35' W 094°56'4 7.2
2017-Sep-19 12:30N 29°38' W 094°58'4 7.3
2017-Sep-19 12:00N 29°41' W 094°59'4 6.2
2017-Sep-19 11:23N 29°44' W 095°03'3 6.9
2017-Sep-19 11:00N 29°46' W 095°05'2 1.6
2017-Sep-19 10:02N 29°47' W 095°05'0 0.0
2017-Sep-18 13:46N 29°47' W 095°05'2 1.3
2017-Sep-18 12:33N 29°46' W 095°05'0 6.7
2017-Sep-18 12:29N 29°46' W 095°04'2 3.8
2017-Sep-18 11:56N 29°44' W 095°03'0 0.1
2017-Sep-18 11:30N 29°44' W 095°03'0 0.0
2017-Sep-18 11:00N 29°44' W 095°03'0 0.0
2017-Sep-18 10:30N 29°44' W 095°03'0 0.0
2017-Sep-18 10:00N 29°44' W 095°03'0 0.0
2017-Sep-18 09:30N 29°44' W 095°03'0 0.0
2017-Sep-18 09:00N 29°44' W 095°03'0 0.0
2017-Sep-18 08:30N 29°44' W 095°03'0 0.0
2017-Sep-18 08:00N 29°44' W 095°03'0 0.0
2017-Sep-18 07:30N 29°44' W 095°03'0 0.0
2017-Sep-18 07:00N 29°44' W 095°03'0 0.0
2017-Sep-18 06:30N 29°44' W 095°03'0 0.0
2017-Sep-18 06:00N 29°44' W 095°03'0 0.0
2017-Sep-18 05:30N 29°44' W 095°03'0 0.0
2017-Sep-18 05:00N 29°44' W 095°03'0 0.0
2017-Sep-18 04:30N 29°44' W 095°03'0 0.0
2017-Sep-18 04:00N 29°44' W 095°03'0 0.0
2017-Sep-18 03:30N 29°44' W 095°03'0 0.0
2017-Sep-18 03:00N 29°44' W 095°03'0 0.0
2017-Sep-18 02:30N 29°44' W 095°03'0 0.0
2017-Sep-18 02:00N 29°44' W 095°03'0 0.0
2017-Sep-18 01:30N 29°44' W 095°03'0 0.0
2017-Sep-18 01:00N 29°44' W 095°03'0 0.0
2017-Sep-18 00:30N 29°44' W 095°03'0 0.0
2017-Sep-18 00:00N 29°44' W 095°03'0 0.0
2017-Sep-17 23:30N 29°44' W 095°03'0 0.0
2017-Sep-17 23:00N 29°44' W 095°03'0 0.0
2017-Sep-17 22:30N 29°44' W 095°03'0 0.0
2017-Sep-17 22:00N 29°44' W 095°03'0 0.0
2017-Sep-17 21:30N 29°44' W 095°03'0 0.0
2017-Sep-17 21:00N 29°44' W 095°03'0 0.0
2017-Sep-17 20:30N 29°44' W 095°03'0 0.0
2017-Sep-17 20:00N 29°44' W 095°03'0 0.0
2017-Sep-17 19:30N 29°44' W 095°03'0 0.0
2017-Sep-17 19:00N 29°44' W 095°03'0 0.0
2017-Sep-17 18:30N 29°44' W 095°03'0 0.0
2017-Sep-17 18:00N 29°44' W 095°03'0 0.0
2017-Sep-17 17:30N 29°44' W 095°03'0 0.0
2017-Sep-17 17:00N 29°44' W 095°03'0 0.0
2017-Sep-17 16:30N 29°44' W 095°03'0 0.0
2017-Sep-17 16:00N 29°44' W 095°03'0 0.0
2017-Sep-17 15:30N 29°44' W 095°03'0 0.0
2017-Sep-17 15:00N 29°44' W 095°03'0 0.0
2017-Sep-17 14:30N 29°44' W 095°03'0 0.0
2017-Sep-17 14:00N 29°44' W 095°03'0 0.0
2017-Sep-17 13:30N 29°44' W 095°03'0 0.0
2017-Sep-17 13:00N 29°44' W 095°03'0 0.0
2017-Sep-17 12:30N 29°44' W 095°03'0 0.0
2017-Sep-17 12:00N 29°44' W 095°03'0 0.0
2017-Sep-17 11:30N 29°44' W 095°03'0 0.0
2017-Sep-17 11:00N 29°44' W 095°03'0 0.1
2017-Sep-17 10:30N 29°44' W 095°03'1 2.1
2017-Sep-17 09:59N 29°45' W 095°04'2 3.1
2017-Sep-17 09:29N 29°46' W 095°05'2 3.6
2017-Sep-17 08:57N 29°44' W 095°07'1 2.5
2017-Sep-17 08:24N 29°44' W 095°08'0 0.1
2017-Sep-17 07:59N 29°44' W 095°08'0 0.0
2017-Sep-17 07:24N 29°44' W 095°08'0 0.0
2017-Sep-17 07:00N 29°44' W 095°08'0 0.0
2017-Sep-17 06:28N 29°44' W 095°08'0 0.0
2017-Sep-17 05:56N 29°44' W 095°08'0 0.0
2017-Sep-17 05:30N 29°44' W 095°08'0 0.0
2017-Sep-17 05:00N 29°44' W 095°08'0 0.0
2017-Sep-17 04:30N 29°44' W 095°08'0 0.0
2017-Sep-17 03:58N 29°44' W 095°08'0 0.0
2017-Sep-17 03:30N 29°44' W 095°08'0 0.0
2017-Sep-17 03:00N 29°44' W 095°08'0 0.0
2017-Sep-17 02:20N 29°44' W 095°08'0 0.0
2017-Sep-17 01:44N 29°44' W 095°08'0 0.0
2017-Sep-17 01:30N 29°44' W 095°08'0 0.0
2017-Sep-17 01:00N 29°44' W 095°08'0 0.0
2017-Sep-17 00:30N 29°44' W 095°08'0 0.0
2017-Sep-16 10:53N 29°44' W 095°08'0 0.0
2017-Sep-16 09:28N 29°44' W 095°08'0 0.0
2017-Sep-16 08:57N 29°44' W 095°08'0 0.0
2017-Sep-16 08:28N 29°44' W 095°08'0 0.0
2017-Sep-16 06:21N 29°44' W 095°08'0 0.0
2017-Sep-16 06:00N 29°44' W 095°08'0 0.0
2017-Sep-16 05:30N 29°44' W 095°08'0 0.0
2017-Sep-16 04:56N 29°44' W 095°08'0 0.0
2017-Sep-14 17:19N 29°44' W 095°08'1 1.5
2017-Sep-14 16:57N 29°44' W 095°08'3 5.7
2017-Sep-14 16:30N 29°46' W 095°05'3 5.3
2017-Sep-14 16:00N 29°44' W 095°03'3 5.4
2017-Sep-14 15:30N 29°42' W 095°01'3 6.0
2017-Sep-14 15:01N 29°40' W 094°58'3 6.9
2017-Sep-14 14:31N 29°37' W 094°57'4 7.1
2017-Sep-14 14:01N 29°34' W 094°55'4 7.1
2017-Sep-14 13:30N 29°31' W 094°53'  
2017-Sep-10 18:03N 29°32' W 094°54'0 6.9
2017-Sep-10 18:00N 29°32' W 094°54'3 6.5
2017-Sep-10 17:30N 29°35' W 094°56'3 6.4
2017-Sep-10 17:00N 29°38' W 094°58'3 6.7
2017-Sep-10 16:30N 29°41' W 094°59'3 6.3
2017-Sep-10 16:00N 29°44' W 095°01'1 2.9
2017-Sep-10 15:31N 29°44' W 095°03'0 0.1
2017-Sep-10 15:00N 29°44' W 095°03'0 0.0
2017-Sep-10 14:00N 29°44' W 095°03'0 0.0
2017-Sep-10 13:30N 29°44' W 095°03'0 0.0
2017-Sep-10 13:00N 29°44' W 095°03'0 0.0
2017-Sep-10 12:30N 29°44' W 095°03'0 0.0
2017-Sep-10 12:00N 29°44' W 095°03'0 0.0
2017-Sep-10 11:30N 29°44' W 095°03'0 0.0
2017-Sep-10 11:00N 29°44' W 095°03'0 0.0
2017-Sep-10 10:30N 29°44' W 095°03'0 0.0
2017-Sep-10 10:00N 29°44' W 095°03'0 0.0
2017-Sep-10 09:30N 29°44' W 095°03'0 0.0
2017-Sep-10 09:00N 29°44' W 095°03'0 0.0
2017-Sep-10 08:30N 29°44' W 095°03'0 0.0
2017-Sep-10 08:00N 29°44' W 095°03'0 0.0
2017-Sep-10 07:30N 29°44' W 095°03'0 0.0
2017-Sep-10 07:00N 29°44' W 095°03'0 0.0
2017-Sep-10 06:30N 29°44' W 095°03'0 0.0
2017-Sep-10 06:00N 29°44' W 095°03'0 0.0
2017-Sep-10 05:30N 29°44' W 095°03'0 0.0
2017-Sep-10 05:00N 29°44' W 095°03'0 0.0
2017-Sep-10 04:30N 29°44' W 095°03'0 0.0
2017-Sep-10 04:00N 29°44' W 095°03'0 0.0
2017-Sep-10 03:30N 29°44' W 095°03'0 0.0
2017-Sep-10 03:00N 29°44' W 095°03'0 0.0
2017-Sep-10 02:30N 29°44' W 095°03'0 0.0
2017-Sep-10 02:00N 29°44' W 095°03'0 0.0
2017-Sep-10 01:30N 29°44' W 095°03'0 0.0
2017-Sep-10 01:00N 29°44' W 095°03'0 0.0
2017-Sep-10 00:30N 29°44' W 095°03'0 0.0
2017-Sep-10 00:00N 29°44' W 095°03'0 0.0
2017-Sep-09 23:30N 29°44' W 095°03'0 0.0
2017-Sep-09 23:00N 29°44' W 095°03'0 0.0
2017-Sep-09 22:30N 29°44' W 095°03'0 0.0
2017-Sep-09 22:00N 29°44' W 095°03'0 0.0
2017-Sep-09 21:30N 29°44' W 095°03'0 0.0
2017-Sep-09 21:00N 29°44' W 095°03'0 0.0
2017-Sep-09 20:30N 29°44' W 095°03'0 0.0
2017-Sep-09 20:00N 29°44' W 095°03'0 0.0
2017-Sep-09 19:30N 29°44' W 095°03'0 0.0
2017-Sep-09 19:00N 29°44' W 095°03'0 0.0
2017-Sep-09 18:30N 29°44' W 095°03'0 0.0
2017-Sep-09 18:00N 29°44' W 095°03'0 0.0
2017-Sep-09 17:30N 29°44' W 095°03'0 0.0
2017-Sep-09 17:00N 29°44' W 095°03'0 0.0
2017-Sep-09 16:30N 29°44' W 095°03'0 0.0
2017-Sep-09 16:00N 29°44' W 095°03'0 0.0
2017-Sep-09 15:30N 29°44' W 095°03'0 0.0
2017-Sep-09 15:00N 29°44' W 095°03'0 0.0
2017-Sep-09 14:29N 29°44' W 095°03'0 0.0
2017-Sep-09 14:00N 29°44' W 095°03'  

Dump ship's entire track history